Time;durP1;ratioP1;P1;durP2;ratioP2;P2;SDS_P1;SDS_P2;PMS_P1;PMS_P2;Temp;Humidity;BMP_temperature;BMP_pressure;BME280_temperature;BME280_humidity;BME280_pressure;Samples;Min_cycle;Max_cycle;Signal;HPM_P1;HPM_P2
2022/11/02 00:02:20;;;;;;;9.88;2.20;;;;;;;12.05;100.00;101209.19;5086171;28;20051;-84
2022/11/02 00:04:49;;;;;;;6.93;2.28;;;;;;;12.03;100.00;101197.75;5100754;28;20048;-85
2022/11/02 00:07:17;;;;;;;7.10;1.75;;;;;;;12.03;100.00;101197.75;5094504;28;20066;-84
2022/11/02 00:09:46;;;;;;;6.32;1.90;;;;;;;12.04;100.00;101202.13;5073130;28;20052;-85
2022/11/02 00:12:14;;;;;;;5.15;1.60;;;;;;;12.04;100.00;101213.59;5057646;28;20040;-85
2022/11/02 00:14:43;;;;;;;8.68;1.98;;;;;;;12.04;100.00;101216.25;5091456;28;20053;-85
2022/11/02 00:17:11;;;;;;;11.43;1.80;;;;;;;12.04;100.00;101191.56;5068280;28;20091;-84
2022/11/02 00:19:39;;;;;;;7.95;2.03;;;;;;;12.04;100.00;101202.13;5082716;28;20047;-84
2022/11/02 00:22:08;;;;;;;5.25;1.40;;;;;;;12.01;100.00;101207.41;5080409;28;20047;-85
2022/11/02 00:24:36;;;;;;;6.75;1.48;;;;;;;11.98;100.00;101199.47;5088784;28;20040;-84
2022/11/02 00:27:06;;;;;;;8.05;1.80;;;;;;;11.92;100.00;101213.53;5090048;28;20039;-85
2022/11/02 00:29:36;;;;;;;8.45;2.20;;;;;;;11.90;100.00;101205.59;5087745;27;20039;-84
2022/11/02 00:32:06;;;;;;;;;;;;;;;11.88;100.00;101212.63;5070709;28;20043;-85
2022/11/02 00:34:34;;;;;;;7.10;1.67;;;;;;;11.85;100.00;101211.72;5097938;28;19920;-84
2022/11/02 00:37:02;;;;;;;8.45;2.20;;;;;;;11.83;100.00;101210.84;5094184;28;20059;-85
2022/11/02 00:39:31;;;;;;;8.75;1.85;;;;;;;11.79;100.00;101214.34;5097416;28;20039;-84
2022/11/02 00:41:59;;;;;;;4.43;1.33;;;;;;;11.73;100.00;101214.31;5091485;28;20044;-85
2022/11/02 00:44:28;;;;;;;7.18;1.40;;;;;;;11.69;100.00;101229.25;5076472;28;20066;-84
2022/11/02 00:46:56;;;;;;;7.78;1.60;;;;;;;11.66;100.00;101229.25;5052011;28;20035;-84
2022/11/02 00:49:25;;;;;;;7.20;1.80;;;;;;;11.59;100.00;101244.19;5050718;28;20265;-84
2022/11/02 00:51:54;;;;;;;9.77;1.60;;;;;;;11.52;100.00;101258.22;5076345;28;20059;-85
2022/11/02 00:54:23;;;;;;;5.53;1.40;;;;;;;11.42;100.00;101245.84;5079400;28;20044;-85
2022/11/02 00:56:56;;;;;;;3.58;1.10;;;;;;;11.29;100.00;101245.75;5056214;28;20058;-85
2022/11/02 00:59:25;;;;;;;3.90;1.45;;;;;;;11.18;100.00;101236.88;5066375;28;20043;-85
2022/11/02 01:01:55;;;;;;;;;;;;;;;11.10;100.00;101228.91;5097417;28;20050;-85
2022/11/02 01:04:24;;;;;;;5.63;1.45;;;;;;;11.03;100.00;101234.16;5070573;28;19931;-84
2022/11/02 01:06:52;;;;;;;3.03;1.23;;;;;;;10.96;100.00;101230.56;5056781;28;20040;-85
2022/11/02 01:09:21;;;;;;;5.65;1.80;;;;;;;10.92;100.00;101219.09;5078608;28;20420;-84
2022/11/02 01:11:50;;;;;;;5.57;1.30;;;;;;;10.89;100.00;101208.56;5072967;28;20063;-84
2022/11/02 01:14:18;;;;;;;10.20;1.30;;;;;;;10.85;100.00;101201.50;5112535;28;20217;-85
2022/11/02 01:16:46;;;;;;;3.75;1.45;;;;;;;10.81;100.00;101207.63;5079152;28;20043;-85
2022/11/02 01:19:15;;;;;;;4.60;1.48;;;;;;;10.77;100.00;101208.44;5039893;28;20048;-85
2022/11/02 01:21:43;;;;;;;5.22;1.13;;;;;;;10.75;100.00;101210.19;5097801;28;20370;-85
2022/11/02 01:24:12;;;;;;;5.90;1.58;;;;;;;10.71;100.00;101209.28;5039343;28;20704;-84
2022/11/02 01:26:40;;;;;;;4.53;1.40;;;;;;;10.68;100.00;101200.44;5064692;28;20475;-84
2022/11/02 01:29:09;;;;;;;2.83;1.48;;;;;;;10.65;100.00;101208.34;5065122;28;20044;-84
2022/11/02 01:31:37;;;;;;;5.22;1.15;;;;;;;10.61;100.00;101206.56;5081374;28;20044;-84
2022/11/02 01:34:06;;;;;;;1.63;1.00;;;;;;;10.57;100.00;101200.38;5062120;28;20044;-85
2022/11/02 01:36:34;;;;;;;1.35;0.80;;;;;;;10.55;100.00;101186.31;5061735;28;20400;-84
2022/11/02 01:39:03;;;;;;;2.78;1.00;;;;;;;10.51;100.00;101185.41;5058284;28;20035;-85
2022/11/02 01:41:34;;;;;;;1.90;0.93;;;;;;;10.49;100.00;101184.50;5072075;28;20047;-84
2022/11/02 01:44:03;;;;;;;1.17;0.70;;;;;;;10.46;100.00;101184.47;5068368;28;20122;-84
2022/11/02 01:46:45;;;;;;;3.72;1.33;;;;;;;10.44;100.00;101173.03;5090153;28;20523;-84
2022/11/02 01:49:19;;;;;;;2.42;1.08;;;;;;;10.42;100.00;101172.16;5092072;28;20051;-84
2022/11/02 01:52:07;;;;;;;4.07;1.10;;;;;;;10.41;100.00;101166.84;5053247;28;20052;-84
2022/11/02 01:54:41;;;;;;;2.47;0.98;;;;;;;10.38;100.00;101167.72;5087053;28;20040;-84
2022/11/02 01:57:13;;;;;;;5.07;1.17;;;;;;;10.36;100.00;101165.91;5093451;28;20052;-84
2022/11/02 02:00:12;;;;;;;1.92;0.70;;;;;;;10.30;100.00;101177.25;5051960;28;20055;-85
2022/11/02 02:02:50;;;;;;;1.08;0.98;;;;;;;10.25;100.00;101181.63;5093820;27;20040;-84
2022/11/02 02:05:22;;;;;;;2.53;0.85;;;;;;;10.23;100.00;101176.31;5090244;28;20606;-84
2022/11/02 02:07:52;;;;;;;1.95;0.88;;;;;;;10.21;100.00;101182.41;5065673;28;20047;-84
2022/11/02 02:10:21;;;;;;;2.72;0.90;;;;;;;10.19;100.00;101185.06;5040728;28;20201;-84
2022/11/02 02:12:49;;;;;;;3.53;1.10;;;;;;;10.19;100.00;101186.78;5087310;28;20052;-84
2022/11/02 02:15:24;;;;;;;1.77;1.05;;;;;;;10.20;100.00;101180.69;5075593;28;20036;-85
2022/11/02 02:18:00;;;;;;;3.55;0.80;;;;;;;10.20;100.00;101181.56;5113212;28;20047;-85
2022/11/02 02:21:02;;;;;;;1.88;1.00;;;;;;;10.21;100.00;101179.78;5073566;28;20055;-84
2022/11/02 02:23:33;;;;;;;1.58;1.00;;;;;;;10.22;100.00;101186.84;5068774;28;20027;-83
2022/11/02 02:26:34;;;;;;;1.90;0.93;;;;;;;10.24;100.00;101166.66;5067569;28;20047;-85
2022/11/02 02:29:15;;;;;;;3.33;0.88;;;;;;;10.25;100.00;101169.31;5081974;28;20043;-84
2022/11/02 02:31:59;;;;;;;2.67;1.23;;;;;;;10.29;100.00;101160.56;5103934;28;20040;-85
2022/11/02 02:34:38;;;;;;;1.48;1.33;;;;;;;10.30;100.00;101119.28;5090711;28;20058;-84
2022/11/02 02:37:13;;;;;;;3.83;1.30;;;;;;;10.31;100.00;101110.56;5092628;28;20039;-84
2022/11/02 02:39:56;;;;;;;2.45;0.90;;;;;;;10.31;100.00;101131.66;5092046;28;20036;-83
2022/11/02 02:42:43;;;;;;;3.78;1.55;;;;;;;10.31;100.00;101139.56;5096235;28;20042;-85
2022/11/02 02:45:15;;;;;;;3.13;1.25;;;;;;;10.31;100.00;101139.56;5076610;28;20039;-85
2022/11/02 02:47:51;;;;;;;2.80;1.40;;;;;;;10.29;100.00;101138.63;5085279;28;20044;-85
2022/11/02 02:50:31;;;;;;;4.13;1.38;;;;;;;10.27;100.00;101137.72;5081777;28;20044;-85
2022/11/02 02:53:03;;;;;;;4.25;1.58;;;;;;;10.26;100.00;101134.19;5094618;28;20043;-85
2022/11/02 02:55:36;;;;;;;4.68;1.75;;;;;;;10.24;100.00;101129.78;5032013;28;20404;-84
2022/11/02 02:58:08;;;;;;;8.55;2.05;;;;;;;10.23;100.00;101131.56;5087566;28;20051;-85
2022/11/02 03:00:37;;;;;;;11.13;2.28;;;;;;;10.23;100.00;101139.44;5109017;28;20396;-84
2022/11/02 03:03:17;;;;;;;7.15;2.13;;;;;;;10.23;100.00;101131.56;5057096;28;20401;-85
2022/11/02 03:06:02;;;;;;;8.00;2.30;;;;;;;10.26;100.00;101123.66;5082115;28;20047;-85
2022/11/02 03:08:35;;;;;;;6.15;2.03;;;;;;;10.30;100.00;101114.97;5053535;28;20041;-84
2022/11/02 03:11:18;;;;;;;10.95;2.17;;;;;;;10.32;100.00;101121.13;5045568;28;20808;-85
2022/11/02 03:14:05;;;;;;;8.18;2.30;;;;;;;10.36;100.00;101123.78;5070622;28;20047;-85
2022/11/02 03:17:02;;;;;;;12.05;2.10;;;;;;;10.38;100.00;101120.31;5075144;28;20050;-85
2022/11/02 03:20:09;;;;;;;8.32;2.22;;;;;;;10.41;100.00;101122.94;5040788;28;20043;-84
2022/11/02 03:22:50;;;;;;;9.45;2.85;;;;;;;10.42;100.00;101124.72;5062314;28;20049;-84
2022/11/02 03:25:27;;;;;;;5.88;1.75;;;;;;;10.43;100.00;101121.19;5065143;28;20063;-84
2022/11/02 03:28:19;;;;;;;8.50;1.73;;;;;;;10.44;100.00;101130.00;5023903;28;20063;-85
2022/11/02 03:31:03;;;;;;;5.10;1.48;;;;;;;10.42;100.00;101126.47;5060750;28;20501;-85
2022/11/02 03:33:36;;;;;;;3.50;1.45;;;;;;;10.42;100.00;101126.47;5065951;28;20098;-84
2022/11/02 03:36:09;;;;;;;2.72;1.30;;;;;;;10.42;100.00;101115.94;5064946;28;20052;-85
2022/11/02 03:39:03;;;;;;;4.47;1.50;;;;;;;10.39;100.00;101118.53;5079279;28;20394;-84
2022/11/02 03:41:35;;;;;;;3.83;1.77;;;;;;;10.37;100.00;101112.38;5062092;28;20509;-84
2022/11/02 03:44:10;;;;;;;5.20;1.67;;;;;;;10.32;100.00;101115.88;5029629;28;20048;-86
2022/11/02 03:46:40;;;;;;;4.10;1.30;;;;;;;10.31;100.00;101123.75;5056462;28;20043;-84
2022/11/02 03:49:14;;;;;;;4.40;1.23;;;;;;;10.30;100.00;101121.94;5067644;28;20032;-85
2022/11/02 03:51:45;;;;;;;6.28;1.30;;;;;;;10.29;100.00;101110.53;5075903;28;20041;-85
2022/11/02 03:54:43;;;;;;;7.35;1.08;;;;;;;10.29;100.00;101122.81;5071572;28;20050;-85
2022/11/02 03:57:20;;;;;;;7.05;1.40;;;;;;;10.29;100.00;101118.44;5051379;28;20172;-84
2022/11/02 03:59:48;;;;;;;4.80;1.30;;;;;;;10.31;100.00;101134.28;5070378;28;20059;-85
2022/11/02 04:02:18;;;;;;;4.40;1.33;;;;;;;10.31;100.00;101126.38;5048745;28;20029;-85
2022/11/02 04:04:49;;;;;;;3.65;1.08;;;;;;;10.31;100.00;101131.66;5081253;28;20055;-85
2022/11/02 04:07:26;;;;;;;4.20;1.17;;;;;;;10.31;100.00;101139.56;5079338;28;20044;-85
2022/11/02 04:09:54;;;;;;;5.05;1.30;;;;;;;10.31;100.00;101140.44;5091239;28;20044;-85
2022/11/02 04:15:10;;;;;;;7.25;1.67;;;;;;;10.26;100.00;101157.03;5088701;28;20070;-84
2022/11/02 04:20:34;;;;;;;5.53;1.90;;;;;;;10.21;100.00;101163.97;5071865;28;20081;-84
2022/11/02 04:25:53;;;;;;;7.35;1.63;;;;;;;10.19;100.00;101173.63;5094456;28;20047;-86
2022/11/02 04:28:41;;;;;;;1.52;1.00;;;;;;;10.17;100.00;101173.63;5059108;28;20043;-84
2022/11/02 04:31:11;;;;;;;11.95;2.38;;;;;;;10.14;100.00;101179.72;5073520;28;20252;-84
2022/11/02 04:33:41;;;;;;;6.78;1.88;;;;;;;10.11;100.00;101185.00;5080168;28;20395;-84
2022/11/02 04:36:15;;;;;;;5.88;1.58;;;;;;;10.12;100.00;101192.00;5077080;28;20047;-84
2022/11/02 04:38:48;;;;;;;6.50;2.03;;;;;;;10.12;100.00;101199.91;5059201;28;20047;-84
2022/11/02 04:41:42;;;;;;;7.50;2.10;;;;;;;10.14;100.00;101206.06;5080412;28;20055;-85
2022/11/02 04:44:17;;;;;;;9.80;1.40;;;;;;;10.18;100.00;101203.47;5080498;28;20176;-83
2022/11/02 04:46:55;;;;;;;4.68;1.40;;;;;;;10.20;100.00;101201.75;5082559;28;20508;-85
2022/11/02 04:49:27;;;;;;;7.97;1.67;;;;;;;10.21;100.00;101196.50;5073862;28;20489;-83
2022/11/02 04:51:55;;;;;;;4.68;1.23;;;;;;;10.25;100.00;101213.22;5079783;27;20039;-85
2022/11/02 04:54:25;;;;;;;7.07;1.98;;;;;;;10.28;100.00;101198.34;5089274;28;20044;-84
2022/11/02 04:56:57;;;;;;;9.40;2.53;;;;;;;10.31;100.00;101208.03;5081364;28;20047;-85
2022/11/02 04:59:28;;;;;;;;;;;;;;;10.33;100.00;101207.16;5056142;28;20043;-83
2022/11/02 05:01:58;;;;;;;5.53;1.95;;;;;;;10.35;100.00;101204.56;5083166;28;19920;-84
2022/11/02 05:04:28;;;;;;;4.07;1.30;;;;;;;10.34;100.00;101200.19;5066898;28;20055;-85
2022/11/02 05:06:57;;;;;;;9.43;1.80;;;;;;;10.30;100.00;101204.53;5070612;28;20598;-84
2022/11/02 05:09:31;;;;;;;6.20;1.83;;;;;;;10.27;100.00;101199.19;5078885;28;20503;-85
2022/11/02 05:12:00;;;;;;;6.45;1.45;;;;;;;10.24;100.00;101196.50;5076158;28;20055;-84
2022/11/02 05:14:30;;;;;;;7.20;2.05;;;;;;;10.21;100.00;101190.31;5068064;28;20063;-84
2022/11/02 05:17:01;;;;;;;12.88;2.08;;;;;;;10.17;100.00;101202.59;5062022;28;20399;-84
2022/11/02 05:19:30;;;;;;;9.23;2.42;;;;;;;10.15;100.00;101207.84;5073864;28;20412;-84
2022/11/02 05:22:00;;;;;;;5.13;1.60;;;;;;;10.13;100.00;101204.31;5075356;28;20036;-83
2022/11/02 05:24:35;;;;;;;6.80;2.08;;;;;;;10.11;100.00;101210.41;5057786;28;20047;-83
2022/11/02 05:27:05;;;;;;;6.97;1.70;;;;;;;10.10;100.00;101212.19;5076836;28;20043;-84
2022/11/02 05:29:36;;;;;;;8.23;1.50;;;;;;;10.11;100.00;101206.06;5095919;28;20047;-83
2022/11/02 05:32:08;;;;;;;9.07;1.75;;;;;;;10.12;100.00;101210.44;5042451;28;20051;-83
2022/11/02 05:34:36;;;;;;;8.25;1.92;;;;;;;10.10;100.00;101201.63;5064078;28;20489;-83
2022/11/02 05:37:05;;;;;;;7.10;1.80;;;;;;;10.12;100.00;101209.56;5081205;28;20071;-85
2022/11/02 05:39:34;;;;;;;13.45;1.98;;;;;;;10.12;100.00;101205.16;5074438;28;20051;-83
2022/11/02 05:42:03;;;;;;;5.60;1.73;;;;;;;10.12;100.00;101207.81;5045961;28;20044;-84
2022/11/02 05:44:32;;;;;;;5.90;1.75;;;;;;;10.12;100.00;101214.84;5058292;28;20047;-83
2022/11/02 05:47:02;;;;;;;6.95;1.90;;;;;;;10.10;100.00;101214.81;5072482;28;20044;-84
2022/11/02 05:49:31;;;;;;;7.97;2.57;;;;;;;10.09;100.00;101225.31;5099039;28;20060;-83
2022/11/02 05:51:59;;;;;;;9.40;2.00;;;;;;;10.05;100.00;101237.56;5073996;28;20755;-84
2022/11/02 05:54:28;;;;;;;7.07;1.52;;;;;;;10.04;100.00;101235.81;5091018;28;20051;-84
2022/11/02 05:56:56;;;;;;;8.80;1.90;;;;;;;10.00;100.00;101231.38;5075425;28;20051;-83
2022/11/02 05:59:25;;;;;;;8.63;1.95;;;;;;;10.00;100.00;101236.66;5074972;28;20063;-84
2022/11/02 06:01:53;;;;;;;10.93;2.08;;;;;;;9.99;100.00;101223.47;5099743;28;20407;-84
2022/11/02 06:04:22;;;;;;;9.07;2.00;;;;;;;9.95;100.00;101230.44;5057336;28;20401;-84
2022/11/02 06:06:51;;;;;;;7.80;2.15;;;;;;;9.94;100.00;101228.66;5054983;28;20060;-84
2022/11/02 06:09:21;;;;;;;7.53;1.90;;;;;;;9.92;100.00;101228.66;5074791;28;20048;-83
2022/11/02 06:11:49;;;;;;;6.22;1.95;;;;;;;9.91;100.00;101240.03;5055780;28;20046;-82
2022/11/02 06:14:17;;;;;;;7.00;1.85;;;;;;;9.89;100.00;101235.63;5093828;28;20043;-83
2022/11/02 06:16:46;;;;;;;9.50;2.05;;;;;;;9.87;100.00;101240.00;5063651;28;20051;-84
2022/11/02 06:19:14;;;;;;;7.63;2.60;;;;;;;9.87;100.00;101240.88;5072336;28;20440;-84
2022/11/02 06:21:45;;;;;;;9.55;1.92;;;;;;;9.89;100.00;101239.16;5090302;28;20047;-84
2022/11/02 06:24:15;;;;;;;6.07;1.65;;;;;;;9.93;100.00;101246.22;5109954;28;20042;-83
2022/11/02 06:26:45;;;;;;;6.97;2.10;;;;;;;9.97;100.00;101257.66;5063345;28;20036;-84
2022/11/02 06:29:14;;;;;;;8.17;2.17;;;;;;;10.01;100.00;101248.06;5091872;28;20035;-83
2022/11/02 06:31:43;;;;;;;12.27;2.22;;;;;;;10.04;100.00;101269.16;5072426;28;20401;-83
2022/11/02 06:34:11;;;;;;;9.32;1.95;;;;;;;10.08;100.00;101263.94;5041334;28;20603;-83
2022/11/02 06:36:40;;;;;;;8.35;2.15;;;;;;;10.10;100.00;101272.75;5097727;28;20035;-84
2022/11/02 06:39:09;;;;;;;11.00;2.97;;;;;;;10.10;100.00;101272.75;5061910;28;20145;-83
2022/11/02 06:41:37;;;;;;;6.20;2.05;;;;;;;10.10;100.00;101280.63;5096260;28;20051;-83
2022/11/02 06:44:06;;;;;;;11.88;2.22;;;;;;;10.11;100.00;101285.06;5080448;28;20040;-83
2022/11/02 06:46:35;;;;;;;11.25;2.08;;;;;;;10.13;100.00;101290.31;5099585;28;20036;-84
2022/11/02 06:49:03;;;;;;;12.30;2.30;;;;;;;10.15;100.00;101297.38;5076540;28;20048;-84
2022/11/02 06:51:31;;;;;;;7.53;2.10;;;;;;;10.18;100.00;101308.81;5050771;28;20056;-84
2022/11/02 06:54:00;;;;;;;11.65;2.40;;;;;;;10.18;100.00;101288.63;5064542;28;20355;-84
2022/11/02 06:56:37;;;;;;;5.53;1.92;;;;;;;10.18;100.00;101295.66;5078080;28;20032;-82
2022/11/02 06:59:05;;;;;;;10.23;2.15;;;;;;;10.15;100.00;101313.19;5064824;28;20040;-82
2022/11/02 07:01:34;;;;;;;8.30;1.95;;;;;;;10.13;100.00;101314.00;5087619;28;20044;-82
2022/11/02 07:04:04;;;;;;;7.80;2.30;;;;;;;10.12;100.00;101328.06;5087143;28;20167;-82
2022/11/02 07:06:32;;;;;;;7.93;2.08;;;;;;;10.11;100.00;101331.56;5054945;28;20059;-82
2022/11/02 07:09:01;;;;;;;7.47;1.73;;;;;;;10.11;100.00;101335.09;5089630;28;20402;-83
2022/11/02 07:11:29;;;;;;;6.85;2.22;;;;;;;10.09;100.00;101349.09;5082270;28;20040;-82
2022/11/02 07:14:04;;;;;;;13.43;2.22;;;;;;;10.07;100.00;101351.69;5068615;28;20040;-81
2022/11/02 07:16:32;;;;;;;6.72;2.53;;;;;;;10.04;100.00;101356.94;5100020;28;20497;-81
2022/11/02 07:19:01;;;;;;;11.02;1.88;;;;;;;10.03;100.00;101365.69;5073028;28;20291;-79
2022/11/02 07:21:30;;;;;;;9.07;1.85;;;;;;;10.02;100.00;101369.19;5083060;28;20055;-81
2022/11/02 07:23:58;;;;;;;14.45;2.10;;;;;;;10.03;100.00;101372.72;5087618;28;20051;-81
2022/11/02 07:26:27;;;;;;;10.90;2.45;;;;;;;10.04;100.00;101383.25;5098753;28;20051;-82
2022/11/02 07:28:55;;;;;;;15.13;3.90;;;;;;;10.09;100.00;101376.31;5058417;28;20397;-81
2022/11/02 07:31:26;;;;;;;8.77;2.08;;;;;;;10.10;100.00;101385.97;5006365;28;20068;-81
2022/11/02 07:33:55;;;;;;;8.48;1.77;;;;;;;10.13;100.00;101387.75;5016950;28;20424;-80
2022/11/02 07:36:23;;;;;;;4.28;1.67;;;;;;;10.14;100.00;101394.81;5028179;28;20056;-82
2022/11/02 07:38:52;;;;;;;7.25;1.52;;;;;;;10.15;100.00;101399.19;5050098;28;20044;-82
2022/11/02 07:41:20;;;;;;;7.93;1.70;;;;;;;10.18;100.00;101401.00;5043929;28;20037;-82
2022/11/02 07:43:49;;;;;;;8.20;1.70;;;;;;;10.22;100.00;101410.72;5049914;28;20048;-82
2022/11/02 07:46:33;;;;;;;8.65;2.38;;;;;;;10.26;100.00;101404.63;5044887;28;20051;-82
2022/11/02 07:49:02;;;;;;;9.02;1.80;;;;;;;10.28;100.00;101410.78;5045791;28;20718;-82
2022/11/02 07:51:30;;;;;;;4.97;1.70;;;;;;;10.30;100.00;101416.94;5050331;28;20059;-82
2022/11/02 07:54:00;;;;;;;7.20;1.95;;;;;;;10.29;100.00;101420.47;5019473;28;20033;-82
2022/11/02 07:56:28;;;;;;;5.05;1.50;;;;;;;10.30;100.00;101417.91;5042747;28;20064;-82
2022/11/02 07:58:57;;;;;;;7.97;1.65;;;;;;;10.34;100.00;101432.00;5050801;28;20081;-82
2022/11/02 08:01:25;;;;;;;8.55;1.88;;;;;;;10.37;100.00;101433.78;5059233;28;20061;-83
2022/11/02 08:03:55;;;;;;;8.18;1.60;;;;;;;10.39;100.00;101432.91;5066278;28;20028;-82
2022/11/02 08:06:23;;;;;;;12.10;2.67;;;;;;;10.37;100.00;101434.66;5051179;28;20049;-83
2022/11/02 08:08:52;;;;;;;8.77;1.75;;;;;;;10.37;100.00;101447.81;5038547;28;20082;-82
2022/11/02 08:11:20;;;;;;;11.05;2.67;;;;;;;10.31;100.00;101448.63;5049252;28;20032;-82
2022/11/02 08:13:49;;;;;;;6.00;1.70;;;;;;;10.28;100.00;101461.75;5090427;28;20520;-81
2022/11/02 08:16:18;;;;;;;8.52;2.13;;;;;;;10.26;100.00;101459.94;5081429;28;20047;-81
2022/11/02 08:18:46;;;;;;;6.43;2.15;;;;;;;10.30;100.00;101467.00;5081426;28;20172;-82
2022/11/02 08:21:15;;;;;;;10.60;1.52;;;;;;;10.37;100.00;101471.53;5073584;28;20060;-81
2022/11/02 08:23:44;;;;;;;9.67;1.97;;;;;;;10.43;100.00;101474.25;5054201;28;20031;-81
2022/11/02 08:26:12;;;;;;;9.65;1.20;;;;;;;10.48;100.00;101474.31;5070673;28;20040;-82
2022/11/02 08:28:41;;;;;;;5.57;1.60;;;;;;;10.56;100.00;101479.69;5067102;28;20587;-81
2022/11/02 08:31:14;;;;;;;7.38;1.60;;;;;;;10.68;100.00;101474.56;5065179;28;20393;-82
2022/11/02 08:33:49;;;;;;;2.83;1.15;;;;;;;10.85;100.00;101493.25;5086604;28;20040;-81
2022/11/02 08:36:18;;;;;;;5.05;1.38;;;;;;;10.97;100.00;101471.44;5089497;28;20036;-82
2022/11/02 08:38:46;;;;;;;7.65;1.30;;;;;;;11.01;100.00;101478.50;5067745;28;20354;-82
2022/11/02 08:41:14;;;;;;;5.40;1.40;;;;;;;11.07;100.00;101486.47;5090665;28;20423;-82
2022/11/02 08:43:43;;;;;;;7.00;1.40;;;;;;;11.14;100.00;101493.59;5079606;28;20036;-82
2022/11/02 08:46:11;;;;;;;6.65;1.50;;;;;;;11.19;100.00;101507.72;5084357;28;20047;-82
2022/11/02 08:48:43;;;;;;;10.52;1.63;;;;;;;11.22;100.00;101502.47;5085489;28;20074;-82
2022/11/02 08:51:12;;;;;;;5.35;1.65;;;;;;;11.27;100.00;101508.69;5083414;28;20040;-81
2022/11/02 08:53:40;;;;;;;6.03;1.88;;;;;;;11.32;100.00;101509.63;5052284;28;20048;-82
2022/11/02 08:56:13;;;;;;;4.28;1.35;;;;;;;11.36;100.00;101507.91;5081907;28;20552;-81
2022/11/02 08:58:41;;;;;;;5.25;1.52;;;;;;;11.43;100.00;101506.22;5085507;28;20028;-83
2022/11/02 09:01:09;;;;;;;6.35;1.60;;;;;;;11.48;100.00;101518.59;5070737;28;20051;-81
2022/11/02 09:03:38;;;;;;;4.55;1.50;;;;;;;11.52;100.00;101516.88;5089158;28;20036;-82
2022/11/02 09:06:07;;;;;;;8.15;1.63;;;;;;;11.55;100.00;101535.38;5098328;27;20054;-81
2022/11/02 09:08:36;;;;;;;4.82;2.03;;;;;;;11.54;100.00;101533.59;5103023;28;20047;-80
2022/11/02 09:11:05;;;;;;;7.47;1.70;;;;;;;11.55;100.00;101535.38;5072521;28;20035;-81
2022/11/02 09:13:33;;;;;;;8.13;1.55;;;;;;;11.54;100.00;101543.28;5080934;28;20036;-81
2022/11/02 09:16:01;;;;;;;8.82;1.75;;;;;;;11.56;100.00;101560.00;5086230;28;20044;-83
2022/11/02 09:18:30;;;;;;;7.15;1.85;;;;;;;11.57;100.00;101557.41;5070085;28;20044;-81
2022/11/02 09:21:03;;;;;;;10.70;1.48;;;;;;;11.57;100.00;101553.84;5061830;28;20064;-79
2022/11/02 09:23:32;;;;;;;4.72;1.45;;;;;;;11.63;100.00;101568.00;5100219;27;20036;-80
2022/11/02 09:26:00;;;;;;;6.30;1.50;;;;;;;11.69;100.00;101569.84;5062280;28;20031;-80
2022/11/02 09:28:29;;;;;;;9.25;1.83;;;;;;;11.73;100.00;101573.38;5081990;28;20047;-82
2022/11/02 09:30:58;;;;;;;7.65;1.65;;;;;;;11.72;100.00;101569.88;5049681;28;20240;-81
2022/11/02 09:33:28;;;;;;;6.80;1.40;;;;;;;11.71;100.00;101568.09;5070805;28;20396;-81
2022/11/02 09:36:02;;;;;;;9.05;2.08;;;;;;;11.74;100.00;101583.97;5057896;28;20075;-82
2022/11/02 09:38:32;;;;;;;6.70;1.58;;;;;;;11.80;100.00;101578.75;5079073;28;20039;-81
2022/11/02 09:41:12;;;;;;;7.50;2.15;;;;;;;11.84;100.00;101583.19;5072364;28;20491;-81
2022/11/02 09:43:48;;;;;;;7.55;1.73;;;;;;;11.86;100.00;101576.16;5110985;28;20381;-82
2022/11/02 09:46:26;;;;;;;8.30;1.70;;;;;;;11.95;100.00;101585.97;5088335;28;20047;-82
2022/11/02 09:49:00;;;;;;;14.60;2.30;;;;;;;12.03;100.00;101594.84;5089787;28;20117;-84
2022/11/02 09:51:34;;;;;;;8.18;1.63;;;;;;;12.09;100.00;101597.53;5086991;28;20048;-83
2022/11/02 09:54:21;;;;;;;11.43;2.10;;;;;;;12.14;100.00;101607.28;5071954;28;20075;-84
2022/11/02 09:56:51;;;;;;;7.47;1.67;;;;;;;12.11;100.00;101618.69;5077294;28;20028;-84
2022/11/02 09:59:24;;;;;;;8.17;1.83;;;;;;;12.08;100.00;101611.63;5092104;28;20047;-83
2022/11/02 10:02:11;;;;;;;7.07;1.80;;;;;;;12.13;100.00;101627.50;5106450;27;20048;-83
2022/11/02 10:04:42;;;;;;;12.02;2.60;;;;;;;12.17;100.00;101633.69;5087744;28;20044;-83
2022/11/02 10:07:31;;;;;;;10.73;2.42;;;;;;;12.23;100.00;101639.94;5058616;28;20039;-85
2022/11/02 10:10:19;;;;;;;8.35;1.65;;;;;;;12.32;100.00;101647.03;5092365;28;20043;-84
2022/11/02 10:13:21;;;;;;;7.18;1.67;;;;;;;12.35;100.00;101649.72;5085785;28;20051;-82
2022/11/02 10:15:54;;;;;;;11.48;1.88;;;;;;;12.30;100.00;101662.00;5090318;28;20051;-82
2022/11/02 10:18:26;;;;;;;8.35;1.92;;;;;;;12.21;100.00;101661.91;5099221;27;20044;-82
2022/11/02 10:21:06;;;;;;;10.18;2.00;;;;;;;12.15;100.00;101660.09;5102953;28;20059;-82
2022/11/02 10:23:41;;;;;;;5.55;1.70;;;;;;;12.23;100.00;101657.53;5095279;28;20044;-82
2022/11/02 10:26:18;;;;;;;8.23;2.00;;;;;;;12.34;100.00;101660.28;5096903;28;20170;-83
2022/11/02 10:29:01;;;;;;;10.32;2.95;;;;;;;12.58;100.00;101678.13;5093762;28;20051;-82
2022/11/02 10:31:33;;;;;;;7.85;1.80;;;;;;;12.71;100.00;101665.88;5073726;28;20047;-82
2022/11/02 10:34:19;;;;;;;16.63;2.35;;;;;;;12.78;100.00;101673.88;5098223;27;20044;-82
2022/11/02 10:37:19;;;;;;;11.18;2.40;;;;;;;12.80;100.00;101674.78;5092633;28;20051;-83
2022/11/02 10:40:06;;;;;;;12.02;2.95;;;;;;;12.84;100.00;101676.56;5103337;27;20042;-83
2022/11/02 10:43:02;;;;;;;8.55;1.63;;;;;;;12.87;100.00;101695.09;5087736;28;20028;-82
2022/11/02 10:45:39;;;;;;;12.90;2.88;;;;;;;12.87;100.00;101700.41;5071917;28;20044;-83
2022/11/02 10:48:21;;;;;;;15.90;2.78;;;;;;;12.89;100.00;101700.38;5081198;28;20515;-81
2022/11/02 10:51:04;;;;;;;7.55;1.95;;;;;;;12.89;100.00;101697.72;5099898;28;20424;-83
2022/11/02 10:53:35;;;;;;;7.43;1.67;;;;;;;12.98;100.00;101711.03;5097952;28;20388;-82
2022/11/02 10:56:20;;;;;;;7.63;1.77;;;;;;;13.10;100.00;101710.25;5075159;28;20040;-82
2022/11/02 10:58:58;;;;;;;7.47;1.83;;;;;;;13.19;100.00;101710.28;5086971;28;20048;-83
2022/11/02 11:01:30;;;;;;;9.10;1.65;;;;;;;13.24;100.00;101711.19;5070502;28;20040;-83
2022/11/02 11:04:18;;;;;;;10.90;3.22;;;;;;;13.33;100.00;101721.00;5072242;27;20110;-83
2022/11/02 11:06:47;;;;;;;7.63;1.88;;;;;;;13.41;100.00;101727.22;5105542;28;20052;-83
2022/11/02 11:09:22;;;;;;;8.93;1.85;;;;;;;13.42;100.00;101730.75;5076620;28;20514;-83
2022/11/02 11:12:00;;;;;;;9.63;1.85;;;;;;;13.43;100.00;101735.19;5054962;28;20058;-79
2022/11/02 11:14:35;;;;;;;7.60;1.67;;;;;;;13.44;100.00;101744.91;5083551;28;20059;-78
2022/11/02 11:17:29;;;;;;;4.88;1.65;;;;;;;13.39;100.00;101752.81;5054692;28;20051;-78
2022/11/02 11:20:38;;;;;;;14.95;2.40;;;;;;;13.27;100.00;101752.72;5082186;27;20512;-79
2022/11/02 11:23:25;;;;;;;6.25;1.48;;;;;;;13.20;100.00;101756.19;5068389;28;20051;-78
2022/11/02 11:26:08;;;;;;;8.90;2.00;;;;;;;13.01;100.00;101760.47;5068122;28;20056;-80
2022/11/02 11:28:57;;;;;;;6.97;1.80;;;;;;;12.89;100.00;101750.63;5078255;28;20265;-78
2022/11/02 11:31:25;;;;;;;10.88;2.00;;;;;;;12.85;100.00;101767.38;5060273;28;20063;-79
2022/11/02 11:33:56;;;;;;;10.15;1.92;;;;;;;12.83;100.00;101753.25;5082210;28;20059;-78
2022/11/02 11:36:31;;;;;;;7.70;1.85;;;;;;;12.77;100.00;101764.66;5069329;28;20065;-81
2022/11/02 11:39:17;;;;;;;5.57;1.55;;;;;;;12.75;100.00;101770.81;5092917;28;20075;-79
2022/11/02 11:41:46;;;;;;;8.45;1.70;;;;;;;12.73;100.00;101768.16;5091493;27;20319;-81
2022/11/02 11:44:15;;;;;;;9.50;1.88;;;;;;;12.70;100.00;101770.75;5067816;28;20381;-79
2022/11/02 11:46:47;;;;;;;7.82;2.13;;;;;;;12.66;100.00;101764.59;5064098;28;20279;-78
2022/11/02 11:49:30;;;;;;;13.65;2.53;;;;;;;12.62;100.00;101761.88;5070807;28;20043;-81
2022/11/02 11:52:28;;;;;;;9.52;2.22;;;;;;;12.60;100.00;101767.16;5074007;28;20032;-80
2022/11/02 11:55:02;;;;;;;7.80;1.92;;;;;;;12.60;100.00;101763.63;5087131;27;20051;-78